Time;durP1;ratioP1;P1;durP2;ratioP2;P2;SDS_P1;SDS_P2;PMS_P1;PMS_P2;Temp;Humidity;BMP_temperature;BMP_pressure;BME280_temperature;BME280_humidity;BME280_pressure;Samples;Min_cycle;Max_cycle;Signal;HPM_P1;HPM_P2
2022/05/04 00:01:42;;;;;;;2.65;0.98;;;;;;;10.10;61.55;102125.09;4973656;28;121650;-34
2022/05/04 00:04:07;;;;;;;1.95;0.80;;;;;;;10.20;61.46;102142.78;4974884;28;97863;-35
2022/05/04 00:06:32;;;;;;;4.93;1.20;;;;;;;10.17;61.83;102136.59;4975016;28;98395;-35
2022/05/04 00:08:58;;;;;;;3.65;1.30;;;;;;;10.18;61.58;102141.06;4974490;28;96938;-35
2022/05/04 00:11:23;;;;;;;4.15;1.05;;;;;;;10.16;61.50;102138.41;4974570;28;96806;-35
2022/05/04 00:13:48;;;;;;;2.58;1.17;;;;;;;10.16;61.50;102143.81;4973482;28;99089;-34
2022/05/04 00:16:14;;;;;;;1.15;0.90;;;;;;;10.11;61.68;102126.88;4974479;28;97806;-35
2022/05/04 00:18:39;;;;;;;3.05;1.17;;;;;;;10.07;61.45;102130.66;4974496;28;96680;-35
2022/05/04 00:21:07;;;;;;;1.85;1.17;;;;;;;10.04;61.43;102138.03;4973525;28;121308;-35
2022/05/04 00:23:32;;;;;;;0.82;0.65;;;;;;;10.04;61.57;102133.47;4972927;28;100769;-35
2022/05/04 00:25:58;;;;;;;1.35;0.80;;;;;;;10.02;61.81;102129.94;4974360;28;98007;-34
2022/05/04 00:28:23;;;;;;;2.65;0.82;;;;;;;10.03;61.51;102139.81;4973344;28;121809;-35
2022/05/04 00:30:48;;;;;;;1.00;0.77;;;;;;;10.06;61.17;102137.03;4974528;28;96778;-35
2022/05/04 00:33:14;;;;;;;1.45;0.95;;;;;;;9.96;61.28;102130.16;4974416;28;98008;-35
2022/05/04 00:35:39;;;;;;;1.67;1.02;;;;;;;9.94;61.53;102127.53;4974131;28;104017;-35
2022/05/04 00:38:04;;;;;;;1.83;1.05;;;;;;;9.93;61.47;102123.06;4973546;28;96647;-35
2022/05/04 00:40:29;;;;;;;1.92;1.08;;;;;;;9.96;61.83;102130.16;4973341;28;119694;-35
2022/05/04 00:42:55;;;;;;;1.73;0.95;;;;;;;9.94;61.55;102140.19;4973269;28;119332;-35
2022/05/04 00:45:20;;;;;;;1.90;0.93;;;;;;;9.88;61.35;102113.34;4973765;28;99626;-35
2022/05/04 00:47:46;;;;;;;1.35;1.00;;;;;;;9.90;61.38;102127.72;4973877;28;96454;-35
2022/05/04 00:50:12;;;;;;;5.90;1.35;;;;;;;9.78;61.22;102124.53;4972788;28;96773;-35
2022/05/04 00:52:41;;;;;;;2.28;1.10;;;;;;;9.85;61.55;102132.44;4972531;28;101003;-35
2022/05/04 00:55:08;;;;;;;0.65;0.65;;;;;;;9.85;61.38;102124.31;4972693;28;100679;-35
2022/05/04 01:00:20;;;;;;;1.83;0.95;;;;;;;9.79;61.93;102118.16;4974218;28;96442;-35
2022/05/04 01:02:46;;;;;;;1.95;1.25;;;;;;;9.82;61.08;102133.44;4972195;28;126420;-35
2022/05/04 01:05:12;;;;;;;1.73;0.93;;;;;;;9.75;61.88;102121.94;4973648;28;97300;-35
2022/05/04 01:07:43;;;;;;;5.13;1.17;;;;;;;9.72;61.59;102124.75;4973663;28;96836;-35
2022/05/04 01:10:11;;;;;;;1.20;0.55;;;;;;;9.74;61.49;102130.09;4972307;28;96790;-35
2022/05/04 01:12:44;;;;;;;0.80;0.60;;;;;;;9.65;61.54;102115.09;4971454;28;101415;-35
2022/05/04 01:15:10;;;;;;;0.90;0.80;;;;;;;9.66;61.56;102119.56;4972186;28;100904;-35
2022/05/04 01:17:36;;;;;;;5.32;0.93;;;;;;;9.68;61.40;102124.94;4973725;28;96564;-35
2022/05/04 01:20:01;;;;;;;2.90;0.70;;;;;;;9.72;61.27;102127.44;4972643;28;123448;-35
2022/05/04 01:22:26;;;;;;;1.17;0.77;;;;;;;9.67;61.29;102120.44;4972708;28;122661;-35
2022/05/04 01:24:51;;;;;;;2.42;1.23;;;;;;;9.72;61.43;102131.97;4972396;28;126382;-35
2022/05/04 01:27:17;;;;;;;2.03;0.82;;;;;;;9.73;61.17;102131.06;4971681;28;124011;-35
2022/05/04 01:29:42;;;;;;;0.98;0.77;;;;;;;9.72;61.67;102132.84;4973603;28;96815;-35
2022/05/04 01:32:08;;;;;;;1.13;0.70;;;;;;;9.70;61.47;102126.66;4973289;28;98003;-35
2022/05/04 01:34:34;;;;;;;2.00;0.90;;;;;;;9.64;61.52;102110.63;4971913;28;102258;-35
2022/05/04 01:37:00;;;;;;;3.72;1.05;;;;;;;9.70;61.19;102132.06;4973512;28;96481;-35
2022/05/04 01:39:26;;;;;;;1.08;0.80;;;;;;;9.64;61.20;102113.34;4971500;28;96871;-35
2022/05/04 01:42:03;;;;;;;5.50;0.90;;;;;;;9.66;61.39;102119.56;4973494;28;97306;-35
2022/05/04 01:44:35;;;;;;;1.05;0.73;;;;;;;9.68;61.56;102122.25;4972125;28;100625;-35
2022/05/04 01:47:00;;;;;;;3.63;0.93;;;;;;;9.67;61.52;102124.03;4972581;28;105278;-35
2022/05/04 01:49:26;;;;;;;3.45;0.85;;;;;;;9.62;61.37;102112.50;4973395;28;96759;-35
2022/05/04 01:51:52;;;;;;;3.22;1.00;;;;;;;9.52;61.32;102109.25;4972742;28;97223;-35
2022/05/04 01:54:17;;;;;;;3.28;0.82;;;;;;;9.53;61.30;102108.34;4972617;28;99343;-35
2022/05/04 01:56:43;;;;;;;1.35;0.57;;;;;;;9.59;61.17;102118.03;4973241;28;96493;-35
2022/05/04 01:59:08;;;;;;;1.40;0.95;;;;;;;9.54;61.58;102106.50;4972958;28;96768;-35
2022/05/04 02:01:34;;;;;;;0.98;0.80;;;;;;;9.45;61.46;102098.72;4972505;28;98023;-35
2022/05/04 02:04:00;;;;;;;0.93;0.77;;;;;;;9.53;61.17;102118.25;4971363;28;101142;-35
2022/05/04 02:06:26;;;;;;;3.17;1.30;;;;;;;9.50;61.63;102107.56;4971958;28;119380;-35
2022/05/04 02:08:52;;;;;;;1.08;0.80;;;;;;;9.41;61.37;102114.19;4971511;28;96737;-35
2022/05/04 02:11:17;;;;;;;1.20;0.88;;;;;;;9.37;61.29;102101.72;4972575;28;97329;-35
2022/05/04 02:13:42;;;;;;;3.03;1.05;;;;;;;9.40;61.43;102100.72;4972444;28;97835;-35
2022/05/04 02:16:08;;;;;;;1.25;0.90;;;;;;;9.31;61.30;102092.00;4972183;28;97642;-35
2022/05/04 02:18:33;;;;;;;2.08;0.85;;;;;;;9.36;61.42;102108.94;4971799;28;122323;-35
2022/05/04 02:20:59;;;;;;;1.23;0.95;;;;;;;9.26;61.61;102095.81;4972793;28;97957;-35
2022/05/04 02:23:24;;;;;;;3.20;0.90;;;;;;;9.31;61.37;102093.81;4972413;28;99315;-35
2022/05/04 02:25:50;;;;;;;1.40;0.82;;;;;;;9.22;61.77;102086.03;4972550;28;96580;-35
2022/05/04 02:28:15;;;;;;;1.02;0.80;;;;;;;9.18;61.65;102090.69;4972753;28;96758;-35
2022/05/04 02:30:40;;;;;;;0.55;0.47;;;;;;;9.11;61.58;102081.91;4971604;28;127480;-35
2022/05/04 02:33:06;;;;;;;4.65;1.23;;;;;;;9.19;61.56;102094.28;4971934;28;126847;-35
2022/05/04 02:38:15;;;;;;;0.73;0.68;;;;;;;9.07;61.79;102082.06;4973065;28;96554;-34
2022/05/04 02:40:40;;;;;;;2.65;1.17;;;;;;;9.07;62.04;102088.34;4971941;28;97836;-34
2022/05/04 02:43:07;;;;;;;1.10;0.50;;;;;;;9.02;61.39;102081.34;4971618;28;122323;-35
2022/05/04 02:45:32;;;;;;;2.05;0.57;;;;;;;8.96;61.92;102079.72;4971030;28;96719;-34
2022/05/04 02:47:58;;;;;;;5.40;0.95;;;;;;;8.95;61.74;102077.09;4972569;28;96732;-34
2022/05/04 02:50:23;;;;;;;1.48;0.88;;;;;;;8.96;61.91;102086.97;4971823;28;99389;-35
2022/05/04 02:52:49;;;;;;;0.80;0.65;;;;;;;8.91;61.82;102082.63;4972346;28;98104;-35
2022/05/04 02:55:14;;;;;;;1.30;0.88;;;;;;;8.82;61.91;102066.72;4972103;28;96475;-34
2022/05/04 02:57:39;;;;;;;1.02;0.57;;;;;;;8.83;62.19;102073.00;4971837;28;121978;-34
2022/05/04 03:00:05;;;;;;;1.08;0.82;;;;;;;8.80;62.04;102076.69;4972109;28;97948;-34
2022/05/04 03:02:30;;;;;;;0.68;0.52;;;;;;;8.78;62.15;102083.97;4971886;28;98783;-35
2022/05/04 03:05:01;;;;;;;0.82;0.52;;;;;;;8.73;61.97;102071.56;4971209;28;96815;-34
2022/05/04 03:07:27;;;;;;;5.20;1.10;;;;;;;8.65;62.10;102069.09;4954184;28;96835;-35
2022/05/04 03:09:54;;;;;;;2.33;1.27;;;;;;;8.65;62.48;102077.19;4971975;28;99730;-35
2022/05/04 03:12:19;;;;;;;1.25;0.95;;;;;;;8.62;62.15;102074.63;4969884;28;100754;-35
2022/05/04 03:14:45;;;;;;;3.63;1.20;;;;;;;8.62;62.52;102078.19;4975342;28;96688;-34
2022/05/04 03:17:10;;;;;;;3.90;1.42;;;;;;;8.55;62.44;102071.22;4975419;28;96961;-34
2022/05/04 03:19:36;;;;;;;1.25;1.00;;;;;;;8.55;62.32;102082.03;4975295;28;97966;-34
2022/05/04 03:22:01;;;;;;;2.35;0.88;;;;;;;8.43;62.46;102066.25;4975819;28;97840;-34
2022/05/04 03:24:26;;;;;;;1.73;0.68;;;;;;;8.46;62.92;102085.03;4974793;28;106537;-35
2022/05/04 03:26:51;;;;;;;2.63;1.13;;;;;;;8.42;62.93;102084.25;4974098;28;96825;-34
2022/05/04 03:29:17;;;;;;;1.50;0.98;;;;;;;8.29;62.75;102059.47;4973960;28;115897;-34
2022/05/04 03:31:42;;;;;;;2.13;0.88;;;;;;;8.36;63.25;102075.44;4974311;28;126966;-34
2022/05/04 03:34:08;;;;;;;1.33;0.65;;;;;;;8.33;63.27;102076.44;4975153;28;96583;-34
2022/05/04 03:36:35;;;;;;;1.50;0.80;;;;;;;8.24;63.40;102061.41;4975074;28;96926;-34
2022/05/04 03:39:01;;;;;;;1.77;0.65;;;;;;;8.22;63.34;102068.69;4975462;28;97206;-34
2022/05/04 03:41:27;;;;;;;1.77;1.05;;;;;;;8.21;63.53;102071.44;4973659;28;100963;-34
2022/05/04 03:43:52;;;;;;;0.70;0.60;;;;;;;8.17;63.73;102067.94;4975399;28;96695;-34
2022/05/04 03:46:20;;;;;;;1.65;0.70;;;;;;;8.08;63.81;102070.94;4975460;28;100035;-35
2022/05/04 03:48:48;;;;;;;2.08;0.93;;;;;;;7.97;63.58;102056.91;4973089;28;102999;-34
2022/05/04 03:51:14;;;;;;;1.73;0.85;;;;;;;8.02;63.64;102072.00;4974968;28;97883;-35
2022/05/04 03:53:40;;;;;;;1.85;1.08;;;;;;;7.94;64.33;102062.41;4974523;28;97651;-35
2022/05/04 03:56:06;;;;;;;1.25;0.65;;;;;;;7.94;64.47;102074.06;4973401;28;97424;-34
2022/05/04 03:58:32;;;;;;;1.35;1.02;;;;;;;7.84;64.71;102059.97;4974918;28;98013;-34
2022/05/04 04:00:57;;;;;;;2.20;1.00;;;;;;;7.87;64.90;102064.41;4973375;28;101312;-34
2022/05/04 04:03:22;;;;;;;1.08;0.98;;;;;;;7.73;65.31;102051.31;4974408;28;97473;-34
2022/05/04 04:05:48;;;;;;;3.60;1.02;;;;;;;7.82;65.04;102069.06;4974219;28;106680;-34
2022/05/04 04:08:13;;;;;;;0.98;0.75;;;;;;;7.73;65.10;102063.94;4973771;28;109344;-34
2022/05/04 04:10:38;;;;;;;1.40;0.95;;;;;;;7.79;65.04;102078.09;4974682;28;100211;-34
2022/05/04 04:13:06;;;;;;;2.70;1.02;;;;;;;7.72;65.24;102064.84;4973730;28;111659;-34
2022/05/04 04:15:32;;;;;;;3.50;0.90;;;;;;;7.69;65.69;102065.81;4973675;28;96832;-34
2022/05/04 04:17:57;;;;;;;1.73;1.15;;;;;;;7.76;65.66;102077.31;4973766;28;97336;-35
2022/05/04 04:23:06;;;;;;;2.28;0.95;;;;;;;7.68;66.31;102068.59;4975077;28;96583;-34
2022/05/04 04:25:32;;;;;;;0.95;0.57;;;;;;;7.68;66.23;102077.56;4973480;28;113843;-34
2022/05/04 04:27:57;;;;;;;1.40;0.88;;;;;;;7.57;65.52;102058.09;4974221;28;97967;-34
2022/05/04 04:30:23;;;;;;;4.50;1.23;;;;;;;7.63;65.67;102064.22;4972776;28;100840;-35
2022/05/04 04:32:48;;;;;;;2.38;0.93;;;;;;;7.62;65.89;102058.84;4974482;28;96437;-34
2022/05/04 04:35:13;;;;;;;0.93;0.65;;;;;;;7.62;65.99;102070.50;4974349;28;109871;-34
2022/05/04 04:37:39;;;;;;;1.38;0.90;;;;;;;7.64;65.49;102079.44;4974337;28;97904;-34
2022/05/04 04:40:05;;;;;;;2.17;0.98;;;;;;;7.59;65.36;102077.81;4973174;28;127528;-34
2022/05/04 04:42:31;;;;;;;2.05;0.98;;;;;;;7.60;65.90;102067.00;4972515;28;96718;-34
2022/05/04 04:44:56;;;;;;;3.08;0.82;;;;;;;7.59;65.81;102070.63;4973332;28;114457;-35
2022/05/04 04:47:21;;;;;;;1.13;0.77;;;;;;;7.61;65.84;102081.38;4973976;28;97929;-34
2022/05/04 04:49:46;;;;;;;1.98;0.88;;;;;;;7.63;65.96;102087.59;4973241;28;126789;-34
2022/05/04 04:52:12;;;;;;;0.88;0.65;;;;;;;7.52;65.38;102065.44;4973048;28;121668;-34
2022/05/04 04:54:37;;;;;;;1.90;0.68;;;;;;;7.61;66.08;102084.94;4973097;28;121611;-34
2022/05/04 04:57:02;;;;;;;1.17;0.98;;;;;;;7.64;65.97;102090.22;4973739;28;99249;-34
2022/05/04 04:59:28;;;;;;;1.67;1.08;;;;;;;7.65;65.59;102085.72;4974015;28;97907;-35
2022/05/04 05:01:53;;;;;;;2.25;0.88;;;;;;;7.63;65.24;102080.38;4973660;28;97068;-34
2022/05/04 05:04:18;;;;;;;2.10;1.13;;;;;;;7.67;65.37;102075.78;4972983;28;119932;-34
2022/05/04 05:06:44;;;;;;;1.17;0.80;;;;;;;7.73;65.18;102082.81;4971786;28;128384;-35
2022/05/04 05:09:09;;;;;;;1.15;0.70;;;;;;;7.72;64.84;102078.34;4973771;28;97862;-34
2022/05/04 05:11:34;;;;;;;1.20;0.73;;;;;;;7.76;65.13;102077.31;4973379;28;96453;-34
2022/05/04 05:16:44;;;;;;;1.23;0.88;;;;;;;7.86;65.09;102094.97;4973920;28;97063;-34
2022/05/04 05:19:09;;;;;;;1.50;1.17;;;;;;;7.88;64.70;102085.91;4973525;28;97283;-34
2022/05/04 05:21:34;;;;;;;1.58;1.20;;;;;;;7.91;65.14;102086.75;4972650;28;120772;-34
2022/05/04 05:23:59;;;;;;;1.80;1.02;;;;;;;8.00;64.83;102094.56;4973388;28;115692;-34
2022/05/04 05:26:25;;;;;;;2.22;1.48;;;;;;;8.06;64.53;102092.56;4973190;28;105532;-34
2022/05/04 05:28:50;;;;;;;1.83;1.00;;;;;;;8.11;64.45;102091.56;4972397;28;124689;-34
2022/05/04 05:31:15;;;;;;;5.00;1.35;;;;;;;8.17;64.41;102094.03;4971828;28;119358;-34
2022/05/04 05:33:40;;;;;;;2.03;1.35;;;;;;;8.23;64.68;102093.88;4972555;28;122520;-34
2022/05/04 05:36:07;;;;;;;4.57;1.75;;;;;;;8.30;64.20;102090.03;4972314;28;99192;-34
2022/05/04 05:38:32;;;;;;;1.60;0.90;;;;;;;8.40;64.02;102094.22;4973283;28;97903;-34
2022/05/04 05:40:57;;;;;;;2.10;1.20;;;;;;;8.41;63.79;102073.50;4973014;28;96590;-34
2022/05/04 05:43:23;;;;;;;5.15;1.90;;;;;;;8.49;63.22;102085.84;4972849;28;96925;-34
2022/05/04 05:45:48;;;;;;;1.75;1.08;;;;;;;8.58;63.21;102083.75;4973022;28;101475;-35
2022/05/04 05:48:14;;;;;;;3.13;1.23;;;;;;;8.67;62.71;102080.75;4971816;28;100709;-34
2022/05/04 05:50:39;;;;;;;2.28;1.38;;;;;;;8.71;62.65;102086.00;4972773;28;97380;-34
2022/05/04 05:53:05;;;;;;;1.98;1.17;;;;;;;8.83;62.54;102075.72;4973021;28;97393;-34
2022/05/04 05:55:30;;;;;;;1.15;0.80;;;;;;;8.86;62.43;102081.00;4971227;28;99234;-34
2022/05/04 05:57:56;;;;;;;1.45;1.08;;;;;;;8.97;62.35;102086.03;4972577;28;107764;-34
2022/05/04 06:00:21;;;;;;;1.67;1.15;;;;;;;9.00;62.32;102080.53;4971603;28;96629;-34
2022/05/04 06:02:47;;;;;;;3.63;1.42;;;;;;;9.11;62.25;102098.13;4973434;28;96813;-35
2022/05/04 06:05:12;;;;;;;2.08;1.35;;;;;;;9.19;61.96;102094.28;4972782;28;103108;-34
2022/05/04 06:07:39;;;;;;;2.55;1.23;;;;;;;9.20;61.74;102083.41;4971866;28;97765;-35
2022/05/04 06:10:05;;;;;;;3.42;1.27;;;;;;;9.34;61.32;102091.91;4969575;28;96740;-34
2022/05/04 06:12:30;;;;;;;2.13;1.10;;;;;;;9.40;61.73;102085.38;4970184;28;96934;-35
2022/05/04 06:14:55;;;;;;;2.20;1.30;;;;;;;9.44;61.41;102081.63;4970953;28;127023;-35
2022/05/04 06:17:21;;;;;;;2.13;1.30;;;;;;;9.60;61.13;102091.88;4971045;28;126746;-34
2022/05/04 06:19:47;;;;;;;3.50;1.55;;;;;;;9.72;61.07;102103.09;4970585;28;122599;-34
2022/05/04 06:22:13;;;;;;;2.65;1.55;;;;;;;9.82;60.51;102100.03;4970934;28;96873;-34
2022/05/04 06:24:38;;;;;;;2.28;1.40;;;;;;;9.83;60.37;102088.28;4972438;28;99202;-34
2022/05/04 06:27:04;;;;;;;1.63;0.85;;;;;;;10.03;60.22;102101.91;4972200;28;99376;-35
2022/05/04 06:35:01;;;;;;;1.83;1.13;;;;;;;10.28;59.78;102103.69;4972988;28;97103;-34
2022/05/04 06:37:26;;;;;;;3.25;1.63;;;;;;;10.37;59.56;102098.81;4972548;28;98023;-34
2022/05/04 06:39:51;;;;;;;3.63;1.45;;;;;;;10.39;59.58;102093.31;4971504;28;121731;-34
2022/05/04 06:42:18;;;;;;;2.30;1.40;;;;;;;10.48;59.06;102087.50;4972261;28;102913;-34
2022/05/04 06:44:43;;;;;;;3.72;1.48;;;;;;;10.75;59.04;102100.84;4971868;28;97977;-34
2022/05/04 06:47:08;;;;;;;1.33;0.98;;;;;;;10.84;58.63;102095.94;4971908;28;105746;-34
2022/05/04 06:49:33;;;;;;;5.68;1.15;;;;;;;10.98;57.98;102097.16;4971432;28;120054;-34
2022/05/04 06:51:59;;;;;;;1.92;0.93;;;;;;;11.13;57.42;102111.88;4971282;28;121440;-34
2022/05/04 06:54:24;;;;;;;3.53;1.38;;;;;;;11.09;57.23;102096.72;4971079;28;128402;-34
2022/05/04 06:56:49;;;;;;;1.40;1.08;;;;;;;11.23;57.55;102108.72;4971606;28;116159;-34
2022/05/04 06:59:14;;;;;;;4.15;1.13;;;;;;;11.35;56.78;102104.56;4970993;28;124465;-34
2022/05/04 07:01:40;;;;;;;1.88;1.13;;;;;;;11.41;57.20;102096.16;4971763;28;121262;-34
2022/05/04 07:04:05;;;;;;;1.85;0.98;;;;;;;11.53;56.78;102101.97;4971241;28;121572;-34
2022/05/04 07:06:31;;;;;;;2.50;1.02;;;;;;;11.53;56.47;102105.56;4971625;28;99493;-34
2022/05/04 07:08:56;;;;;;;2.95;1.33;;;;;;;11.68;56.67;102101.28;4970378;28;118966;-34
2022/05/04 07:11:21;;;;;;;5.22;1.75;;;;;;;11.86;56.24;102100.41;4972230;28;96802;-34
2022/05/04 07:13:47;;;;;;;4.20;1.40;;;;;;;12.05;55.87;102105.03;4971173;28;99336;-34
2022/05/04 07:16:12;;;;;;;3.42;1.02;;;;;;;12.25;55.28;102110.38;4969699;28;124914;-34
2022/05/04 07:18:37;;;;;;;3.72;1.55;;;;;;;12.18;55.73;102102.59;4971950;28;96583;-34
2022/05/04 07:21:03;;;;;;;2.22;1.20;;;;;;;12.29;55.86;102106.53;4970923;28;97927;-34
2022/05/04 07:23:28;;;;;;;3.47;1.25;;;;;;;12.30;55.22;102100.19;4973629;28;101604;-34
2022/05/04 07:25:54;;;;;;;2.88;1.33;;;;;;;12.42;54.83;102101.41;4985518;28;113836;-34
2022/05/04 07:28:20;;;;;;;4.93;1.27;;;;;;;12.46;55.07;102103.00;4991572;28;96664;-34
2022/05/04 07:30:45;;;;;;;6.15;1.60;;;;;;;12.59;54.82;102092.41;4991688;28;96803;-34
2022/05/04 07:33:10;;;;;;;3.28;1.63;;;;;;;12.74;54.49;102090.75;4988779;28;126315;-34
2022/05/04 07:35:36;;;;;;;5.68;1.83;;;;;;;12.87;53.02;102091.91;4989978;28;103091;-34
2022/05/04 07:38:01;;;;;;;2.35;1.38;;;;;;;12.94;52.62;102079.75;4990922;28;121984;-34
2022/05/04 07:43:10;;;;;;;4.45;1.85;;;;;;;13.25;52.90;102094.47;4991660;28;97108;-34
2022/05/04 07:45:36;;;;;;;4.25;1.90;;;;;;;13.31;53.54;102096.88;4989869;28;100808;-34
2022/05/04 07:48:01;;;;;;;3.72;1.42;;;;;;;13.29;53.14;102085.19;4991326;28;96606;-34
2022/05/04 07:50:28;;;;;;;3.15;1.80;;;;;;;13.38;52.91;102092.00;4991991;28;96959;-34
2022/05/04 07:52:53;;;;;;;4.18;1.75;;;;;;;13.58;51.79;102093.63;4991379;28;98208;-35
2022/05/04 07:55:19;;;;;;;2.88;1.38;;;;;;;13.63;52.34;102091.53;4991125;28;99182;-34
2022/05/04 07:57:47;;;;;;;2.10;1.40;;;;;;;13.68;51.52;102091.28;4989667;28;124672;-35
2022/05/04 08:05:41;;;;;;;4.03;1.42;;;;;;;14.11;51.38;102097.97;4992830;28;96880;-34
2022/05/04 08:08:07;;;;;;;3.13;1.88;;;;;;;14.17;51.16;102096.75;4994600;28;96574;-34
2022/05/04 08:10:32;;;;;;;5.90;1.92;;;;;;;14.23;51.41;102093.69;4995075;28;96846;-34
2022/05/04 08:13:01;;;;;;;4.35;1.50;;;;;;;14.21;51.08;102092.88;4994121;28;97945;-34
2022/05/04 08:15:26;;;;;;;4.10;1.80;;;;;;;14.21;51.14;102099.22;4994579;28;99348;-35
2022/05/04 08:17:52;;;;;;;4.63;1.40;;;;;;;14.16;50.48;102095.00;4994519;28;97394;-34
2022/05/04 08:20:17;;;;;;;8.65;1.88;;;;;;;14.03;51.08;102083.91;4994727;28;96683;-35
2022/05/04 08:22:43;;;;;;;3.15;1.73;;;;;;;14.13;51.04;102104.19;4993910;28;98496;-34
2022/05/04 08:25:09;;;;;;;4.40;1.80;;;;;;;14.22;51.02;102086.47;4992839;28;100731;-34
2022/05/04 08:27:34;;;;;;;4.72;2.00;;;;;;;14.37;50.28;102088.31;4994519;28;96688;-34
2022/05/04 08:30:00;;;;;;;7.40;1.85;;;;;;;14.40;50.43;102095.44;4993063;28;121248;-35
2022/05/04 08:32:29;;;;;;;2.45;1.52;;;;;;;14.42;50.67;102097.09;4994072;28;99413;-35
2022/05/04 08:34:58;;;;;;;4.10;2.05;;;;;;;14.51;49.92;102095.66;4992810;28;100977;-35
2022/05/04 08:37:26;;;;;;;4.40;1.95;;;;;;;14.58;50.07;102090.78;4994506;28;96431;-35
2022/05/04 08:39:52;;;;;;;4.28;1.60;;;;;;;14.69;50.28;102087.44;4993024;28;96938;-34
2022/05/04 08:42:18;;;;;;;2.63;1.67;;;;;;;14.67;49.76;102092.97;4993857;28;97899;-35
2022/05/04 08:44:48;;;;;;;5.13;1.85;;;;;;;14.52;50.68;102099.31;4992603;28;100520;-35
2022/05/04 08:47:15;;;;;;;4.75;1.73;;;;;;;14.51;50.53;102089.34;4992057;28;96746;-35
2022/05/04 08:49:41;;;;;;;3.45;1.70;;;;;;;14.53;50.11;102088.28;4992520;28;97058;-34
2022/05/04 08:52:07;;;;;;;3.90;1.85;;;;;;;14.60;49.85;102087.00;4992342;28;101694;-34
2022/05/04 08:54:33;;;;;;;3.70;1.40;;;;;;;14.77;49.47;102091.44;4992417;28;100861;-35
2022/05/04 08:56:59;;;;;;;4.88;1.73;;;;;;;14.53;49.25;102084.69;4994203;28;96640;-35
2022/05/04 08:59:25;;;;;;;3.63;1.73;;;;;;;14.83;49.04;102088.38;4992593;28;96810;-35
2022/05/04 09:01:50;;;;;;;3.45;1.95;;;;;;;15.11;48.83;102077.63;4993898;28;96839;-35
2022/05/04 09:04:16;;;;;;;3.88;1.50;;;;;;;15.27;48.82;102095.69;4994473;28;97290;-34
2022/05/04 09:06:43;;;;;;;7.00;1.52;;;;;;;15.18;47.88;102073.56;4993546;28;96438;-35
2022/05/04 09:09:12;;;;;;;3.03;1.67;;;;;;;15.28;48.11;102083.81;4992266;28;96855;-34
2022/05/04 09:11:39;;;;;;;6.78;2.10;;;;;;;15.16;47.48;102084.59;4989941;28;101045;-35
2022/05/04 09:14:09;;;;;;;3.75;1.48;;;;;;;15.31;48.80;102092.81;4991646;28;100804;-34
2022/05/04 09:16:34;;;;;;;3.05;1.60;;;;;;;15.52;48.10;102086.00;4992236;28;96790;-34
2022/05/04 09:19:09;;;;;;;9.75;1.90;;;;;;;15.60;47.47;102071.88;4993580;28;96765;-35
2022/05/04 09:21:35;;;;;;;4.10;1.55;;;;;;;15.78;47.34;102089.88;4975417;28;101097;-34
2022/05/04 09:24:01;;;;;;;5.47;2.03;;;;;;;15.84;45.48;102072.19;4991774;28;100661;-34
2022/05/04 09:26:26;;;;;;;6.50;2.00;;;;;;;16.10;46.88;102076.84;4993307;28;96576;-34
2022/05/04 09:35:35;;;;;;;2.95;1.98;;;;;;;16.60;45.10;102054.44;4991608;28;96970;-34
2022/05/04 09:46:39;;;;;;;5.72;1.95;;;;;;;16.72;44.49;102050.88;4993526;28;97025;-34
2022/05/04 09:49:14;;;;;;;5.22;1.92;;;;;;;16.85;44.03;102048.19;4991498;28;96729;-35
2022/05/04 09:51:41;;;;;;;3.78;2.03;;;;;;;16.90;43.58;102048.75;4991639;28;96850;-35
2022/05/04 09:54:18;;;;;;;5.80;2.10;;;;;;;17.01;44.44;102054.34;4992732;28;98050;-34
2022/05/04 09:56:49;;;;;;;3.95;1.67;;;;;;;17.10;44.16;102059.19;4993012;28;99190;-34
2022/05/04 09:59:16;;;;;;;8.13;2.20;;;;;;;17.26;45.11;102059.00;4991710;28;96710;-34
2022/05/04 10:01:43;;;;;;;2.92;2.10;;;;;;;17.54;44.86;102057.03;4990992;28;96901;-35
2022/05/04 10:04:10;;;;;;;4.30;2.25;;;;;;;17.85;43.24;102060.31;4990811;28;100801;-34
2022/05/04 10:06:37;;;;;;;4.47;1.83;;;;;;;18.00;42.90;102054.59;4974759;28;101297;-35
2022/05/04 10:09:07;;;;;;;3.40;1.65;;;;;;;18.07;43.67;102057.78;4991255;28;98413;-35
2022/05/04 10:11:34;;;;;;;8.45;2.08;;;;;;;18.22;43.06;102056.63;4991272;28;96962;-34
2022/05/04 10:14:07;;;;;;;3.65;1.80;;;;;;;17.92;42.17;102057.00;4990691;28;98876;-35
2022/05/04 10:16:40;;;;;;;5.78;1.83;;;;;;;17.60;41.90;102054.72;4992418;28;99320;-35
2022/05/04 10:19:08;;;;;;;7.82;1.80;;;;;;;17.27;44.06;102060.75;4991277;28;96716;-34
2022/05/04 10:21:36;;;;;;;2.05;1.45;;;;;;;17.11;44.21;102057.31;4991352;28;96930;-35
2022/05/04 10:24:06;;;;;;;3.58;1.52;;;;;;;17.04;44.05;102048.69;4990963;28;101044;-35
2022/05/04 10:26:36;;;;;;;3.33;1.50;;;;;;;17.40;43.77;102055.31;4990881;28;100813;-35
2022/05/04 10:32:32;;;;;;;2.33;1.35;;;;;;;17.90;42.97;102053.53;4992870;28;96540;-35
2022/05/04 10:35:21;;;;;;;5.28;1.73;;;;;;;17.96;42.25;102052.19;4992173;28;97956;-35
2022/05/04 10:37:58;;;;;;;4.05;1.65;;;;;;;17.83;42.87;102053.09;4974417;28;100821;-35
2022/05/04 10:40:30;;;;;;;5.50;1.85;;;;;;;17.98;42.83;102047.47;4992420;28;96434;-35
2022/05/04 10:43:18;;;;;;;2.30;1.52;;;;;;;18.29;41.23;102036.97;4990947;28;96838;-35
2022/05/04 10:45:46;;;;;;;8.82;1.52;;;;;;;18.56;41.60;102040.34;4992361;28;96379;-35
2022/05/04 10:48:22;;;;;;;3.33;1.88;;;;;;;18.78;40.98;102035.97;4992299;28;98809;-35
2022/05/04 10:51:04;;;;;;;4.28;1.67;;;;;;;18.75;39.83;102047.19;4990838;28;96686;-34
2022/05/04 10:53:29;;;;;;;2.22;1.30;;;;;;;18.82;39.26;102038.38;4991042;28;96710;-35
2022/05/04 10:55:55;;;;;;;3.35;1.63;;;;;;;18.74;40.96;102049.06;4991250;28;97948;-35
2022/05/04 10:58:49;;;;;;;3.90;1.65;;;;;;;18.54;39.19;102042.34;4991663;28;99347;-35
2022/05/04 11:01:24;;;;;;;3.20;1.90;;;;;;;18.60;39.20;102036.38;4990705;28;96841;-35
2022/05/04 11:04:10;;;;;;;4.45;1.63;;;;;;;18.93;38.92;102043.06;4990701;28;96666;-35
2022/05/04 11:06:40;;;;;;;6.03;2.00;;;;;;;19.05;40.08;102039.34;4992030;28;97437;-35
2022/05/04 11:09:13;;;;;;;3.50;1.67;;;;;;;18.75;37.45;102030.72;4990215;28;101764;-35
2022/05/04 11:11:49;;;;;;;4.20;1.48;;;;;;;18.41;39.72;102027.81;4990661;28;96892;-35
2022/05/04 11:14:18;;;;;;;2.85;1.58;;;;;;;18.48;41.35;102031.84;4990653;28;96959;-34
2022/05/04 11:16:45;;;;;;;3.78;1.88;;;;;;;18.09;41.51;102033.88;4990265;28;101109;-35
2022/05/04 11:19:16;;;;;;;4.18;1.95;;;;;;;18.23;40.23;102036.44;4990252;28;101014;-35
2022/05/04 11:21:42;;;;;;;4.43;1.85;;;;;;;18.28;41.89;102044.31;4989995;28;97414;-35
2022/05/04 11:24:10;;;;;;;4.35;2.08;;;;;;;18.30;40.41;102042.31;4990426;28;96929;-35
2022/05/04 11:26:38;;;;;;;4.50;2.08;;;;;;;18.19;42.30;102021.22;4989924;28;100893;-34
2022/05/04 11:29:11;;;;;;;3.83;1.80;;;;;;;18.04;41.42;102027.81;4989753;28;101133;-35
2022/05/04 11:31:37;;;;;;;4.38;1.88;;;;;;;18.36;41.87;102028.16;4990605;28;96697;-35
2022/05/04 11:34:03;;;;;;;4.80;2.13;;;;;;;18.71;40.83;102018.22;4992268;28;96841;-35
2022/05/04 11:36:28;;;;;;;5.05;2.40;;;;;;;19.14;40.71;102024.00;4993518;28;101147;-35
2022/05/04 11:38:54;;;;;;;3.17;1.98;;;;;;;19.35;40.62;102004.91;4993972;28;100727;-35
2022/05/04 11:41:20;;;;;;;7.10;2.72;;;;;;;19.52;39.60;102018.19;4995352;28;96741;-35
2022/05/04 11:43:51;;;;;;;4.10;2.20;;;;;;;19.49;40.45;102021.16;4992008;28;96893;-35
2022/05/04 11:46:17;;;;;;;5.47;2.40;;;;;;;19.45;40.40;102021.53;4992939;28;101020;-35
2022/05/04 11:48:47;;;;;;;7.90;2.70;;;;;;;19.37;39.58;102015.78;4994743;28;97963;-35
2022/05/04 11:51:15;;;;;;;7.90;3.03;;;;;;;19.51;39.93;102016.44;4994721;28;96618;-35
2022/05/04 11:53:41;;;;;;;4.55;2.22;;;;;;;19.55;38.70;102007.97;4993498;28;96900;-35
2022/05/04 11:56:08;;;;;;;8.35;2.40;;;;;;;19.79;38.64;102010.59;4994826;28;97398;-35
2022/05/04 11:58:34;;;;;;;7.43;2.42;;;;;;;19.61;37.92;102004.69;4994454;28;99062;-35
2022/05/04 12:01:04;;;;;;;6.03;2.58;;;;;;;19.30;37.99;102013.53;4993375;28;96759;-35
2022/05/04 12:03:31;;;;;;;4.18;1.98;;;;;;;19.44;39.61;101995.94;4993728;28;96633;-35
2022/05/04 12:05:59;;;;;;;5.00;2.13;;;;;;;19.69;38.83;101997.59;4993225;28;101053;-35
2022/05/04 12:08:25;;;;;;;8.65;2.33;;;;;;;19.89;37.88;102003.34;4992916;28;100874;-35